Time;durP1;ratioP1;P1;durP2;ratioP2;P2;SDS_P1;SDS_P2;PMS_P1;PMS_P2;Temp;Humidity;BMP_temperature;BMP_pressure;BME280_temperature;BME280_humidity;BME280_pressure;Samples;Min_cycle;Max_cycle;Signal;HPM_P1;HPM_P2
2023/05/06 00:01:19;;;;;;;;;12.00;9.33;23.30;40.30;;;;;;111309;1243;49729;-60
2023/05/06 00:03:46;;;;;;;;;11.00;10.00;23.30;40.30;;;;;;111476;1244;45255;-60
2023/05/06 00:06:13;;;;;;;;;11.75;10.75;23.30;40.30;;;;;;111298;1238;54226;-61
2023/05/06 00:08:40;;;;;;;;;12.25;11.00;23.30;40.50;;;;;;111523;1241;53971;-61
2023/05/06 00:11:07;;;;;;;;;11.00;10.00;23.30;40.30;;;;;;111562;1241;49038;-62
2023/05/06 00:13:34;;;;;;;;;10.25;9.25;23.30;40.20;;;;;;111475;1242;50211;-60
2023/05/06 00:16:01;;;;;;;;;11.00;10.00;23.30;40.30;;;;;;111340;1238;45734;-60
2023/05/06 00:18:28;;;;;;;;;11.00;10.00;23.30;40.30;;;;;;111462;1241;54490;-62
2023/05/06 00:20:55;;;;;;;;;12.25;9.75;23.30;40.50;;;;;;111534;1238;53912;-61
2023/05/06 00:23:22;;;;;;;;;13.25;10.00;23.30;40.30;;;;;;111517;1238;49280;-61
2023/05/06 00:25:49;;;;;;;;;11.25;10.25;23.20;40.30;;;;;;111258;1238;49567;-59
2023/05/06 00:28:16;;;;;;;;;11.00;10.00;23.20;40.30;;;;;;111529;1239;44661;-59
2023/05/06 00:30:43;;;;;;;;;11.33;10.00;23.30;40.30;;;;;;111546;1241;54891;-60
2023/05/06 00:33:09;;;;;;;;;11.75;10.75;23.20;40.20;;;;;;111515;1238;53396;-60
2023/05/06 00:35:37;;;;;;;;;13.75;11.00;23.20;40.20;;;;;;111314;1241;50485;-60
2023/05/06 00:38:08;;;;;;;;;11.00;10.00;23.20;40.30;;;;;;111332;1241;49742;-60
2023/05/06 00:40:36;;;;;;;;;11.50;10.50;23.20;39.80;;;;;;111438;1239;45282;-61
2023/05/06 00:43:02;;;;;;;;;10.25;9.00;23.20;40.30;;;;;;111558;1241;54233;-62
2023/05/06 00:45:29;;;;;;;;;10.00;9.00;23.20;40.40;;;;;;111357;1241;54072;-61
2023/05/06 00:47:57;;;;;;;;;12.00;9.25;23.10;40.30;;;;;;111553;1242;49503;-61
2023/05/06 00:50:24;;;;;;;;;10.75;9.50;23.20;40.30;;;;;;111496;1237;49155;-61
2023/05/06 00:52:53;;;;;;;;;13.50;12.00;23.20;40.30;;;;;;111627;1240;44716;-59
2023/05/06 00:55:20;;;;;;;;;10.00;9.00;23.10;40.20;;;;;;111336;1237;54637;-61
2023/05/06 00:57:49;;;;;;;;;13.00;11.75;23.10;40.20;;;;;;111327;1238;54254;-60
2023/05/06 01:00:17;;;;;;;;;11.00;10.00;23.10;40.40;;;;;;111516;1238;50038;-59
2023/05/06 01:02:45;;;;;;;;;12.67;11.00;23.10;40.20;;;;;;111737;1240;49891;-61
2023/05/06 01:05:17;;;;;;;;;11.67;10.33;23.10;40.20;;;;;;111397;1238;46103;-60
2023/05/06 01:08:10;;;;;;;;;14.00;11.00;23.10;40.30;;;;;;111443;1238;55659;-61
2023/05/06 01:10:54;;;;;;;;;12.00;10.75;23.10;40.20;;;;;;111558;1239;53705;-60
2023/05/06 01:13:42;;;;;;;;;10.75;9.75;23.10;40.40;;;;;;111495;1241;49093;-61
2023/05/06 01:16:09;;;;;;;;;11.00;9.75;23.10;40.20;;;;;;111368;1238;50457;-60
2023/05/06 01:18:37;;;;;;;;;10.75;9.75;23.10;40.20;;;;;;111331;1241;45361;-61
2023/05/06 01:21:04;;;;;;;;;12.00;11.00;23.10;40.20;;;;;;111428;1243;54228;-60
2023/05/06 01:23:51;;;;;;;;;10.50;9.50;23.10;40.20;;;;;;111394;1243;53677;-60
2023/05/06 01:26:18;;;;;;;;;13.00;11.00;23.10;40.20;;;;;;111199;1238;50004;-59
2023/05/06 01:28:44;;;;;;;;;9.25;8.25;23.00;40.20;;;;;;111609;1242;49520;-60
2023/05/06 01:31:14;;;;;;;;;11.75;10.75;23.00;40.10;;;;;;111527;1237;45132;-60
2023/05/06 01:34:01;;;;;;;;;13.00;10.00;23.00;40.20;;;;;;111448;1240;55590;-60
2023/05/06 01:36:56;;;;;;;;;10.75;9.25;23.00;40.20;;;;;;111228;1239;55409;-60
2023/05/06 01:39:24;;;;;;;;;12.00;10.75;23.00;40.20;;;;;;111480;1238;49078;-61
2023/05/06 01:41:56;;;;;;;;;12.50;10.00;23.00;40.20;;;;;;111454;1237;49671;-61
2023/05/06 01:44:24;;;;;;;;;11.50;10.50;23.10;40.10;;;;;;111312;1246;45329;-60
2023/05/06 01:46:52;;;;;;;;;12.00;9.33;23.00;40.00;;;;;;111412;1237;54529;-60
2023/05/06 01:49:21;;;;;;;;;12.00;10.67;23.00;40.00;;;;;;111371;1243;53419;-60
2023/05/06 01:51:49;;;;;;;;;10.00;9.00;23.00;40.00;;;;;;111398;1239;50317;-61
2023/05/06 01:54:16;;;;;;;;;14.25;13.00;23.00;40.00;;;;;;111319;1237;49194;-61
2023/05/06 01:56:43;;;;;;;;;12.75;9.50;23.00;40.30;;;;;;111458;1238;45094;-61
2023/05/06 01:59:10;;;;;;;;;10.67;9.67;23.00;40.10;;;;;;111493;1238;54263;-59
2023/05/06 02:01:37;;;;;;;;;10.75;9.75;22.90;40.00;;;;;;111503;1238;53654;-60
2023/05/06 02:04:04;;;;;;;;;9.75;8.75;22.90;40.10;;;;;;111393;1245;50450;-60
2023/05/06 02:06:31;;;;;;;;;13.25;10.75;22.90;40.10;;;;;;111325;1239;50156;-60
2023/05/06 02:08:58;;;;;;;;;10.00;8.75;22.90;40.10;;;;;;111544;1241;44970;-60
2023/05/06 02:11:25;;;;;;;;;10.50;8.75;22.90;40.10;;;;;;111413;1238;54391;-60
2023/05/06 02:13:52;;;;;;;;;12.00;10.00;22.90;40.20;;;;;;111531;1241;53298;-61
2023/05/06 02:16:20;;;;;;;;;10.00;9.00;22.80;40.30;;;;;;111245;1238;50890;-60
2023/05/06 02:18:47;;;;;;;;;11.00;9.67;22.80;40.10;;;;;;111527;1241;50533;-60
2023/05/06 02:21:14;;;;;;;;;13.67;10.67;22.80;40.10;;;;;;111579;1238;45663;-61
2023/05/06 02:23:41;;;;;;;;;9.00;7.75;22.80;40.10;;;;;;111603;1238;55614;-61
2023/05/06 02:26:09;;;;;;;;;10.00;9.00;22.80;40.10;;;;;;111269;1238;53426;-60
2023/05/06 02:28:36;;;;;;;;;10.67;9.00;22.80;40.30;;;;;;111483;1237;48555;-61
2023/05/06 02:31:03;;;;;;;;;13.25;10.00;22.80;40.10;;;;;;111433;1242;49713;-61
2023/05/06 02:33:30;;;;;;;;;12.00;11.00;22.80;40.10;;;;;;111375;1241;44711;-61
2023/05/06 02:35:56;;;;;;;;;10.50;9.50;22.80;40.10;;;;;;111161;1242;54677;-61
2023/05/06 02:38:25;;;;;;;;;11.25;10.00;22.80;40.10;;;;;;111487;1238;53999;-61
2023/05/06 02:40:52;;;;;;;;;10.75;9.75;22.80;40.10;;;;;;111410;1241;50175;-60
2023/05/06 02:43:19;;;;;;;;;12.00;10.25;22.80;40.10;;;;;;111589;1241;50166;-62
2023/05/06 02:45:46;;;;;;;;;11.00;10.00;22.80;40.10;;;;;;111209;1239;44997;-60
2023/05/06 02:48:13;;;;;;;;;11.00;10.00;22.80;40.10;;;;;;111519;1241;53956;-61
2023/05/06 02:50:40;;;;;;;;;13.00;9.00;22.80;40.10;;;;;;111513;1237;54193;-61
2023/05/06 02:53:09;;;;;;;;;11.33;10.33;22.80;40.20;;;;;;111557;1241;49624;-60
2023/05/06 02:55:36;;;;;;;;;13.00;12.00;22.70;40.00;;;;;;111289;1241;49490;-60
2023/05/06 02:58:02;;;;;;;;;11.00;9.75;22.70;40.10;;;;;;111483;1237;45022;-60
2023/05/06 03:00:29;;;;;;;;;11.00;10.00;22.70;40.20;;;;;;111597;1241;54390;-60
2023/05/06 03:02:56;;;;;;;;;11.75;10.25;22.70;40.00;;;;;;111526;1238;53401;-61
2023/05/06 03:05:23;;;;;;;;;13.00;11.00;22.70;40.10;;;;;;111394;1238;50268;-61
2023/05/06 03:07:50;;;;;;;;;10.75;9.75;22.70;40.10;;;;;;111561;1241;49452;-61
2023/05/06 03:10:17;;;;;;;;;12.00;10.75;22.70;40.10;;;;;;111463;1243;44708;-59
2023/05/06 03:12:44;;;;;;;;;9.67;8.67;22.70;40.10;;;;;;111471;1238;54897;-60
2023/05/06 03:15:11;;;;;;;;;10.75;9.75;22.60;40.30;;;;;;111298;1241;54414;-60
2023/05/06 03:17:38;;;;;;;;;11.25;10.00;22.60;40.10;;;;;;111386;1242;50306;-61
2023/05/06 03:20:07;;;;;;;;;11.00;9.75;22.60;40.10;;;;;;111522;1242;49320;-61
2023/05/06 03:22:34;;;;;;;;;11.67;9.67;22.60;40.10;;;;;;111532;1237;45388;-60
2023/05/06 03:25:01;;;;;;;;;12.00;11.00;22.60;40.10;;;;;;111176;1240;55141;-59
2023/05/06 03:27:28;;;;;;;;;11.00;10.00;22.60;40.10;;;;;;111412;1243;54250;-60
2023/05/06 03:29:55;;;;;;;;;10.00;9.00;22.60;40.10;;;;;;111308;1239;50647;-61
2023/05/06 03:32:22;;;;;;;;;11.00;10.00;22.60;40.10;;;;;;111393;1242;49780;-60
2023/05/06 03:34:49;;;;;;;;;11.75;9.75;22.50;40.00;;;;;;111334;1241;45162;-61
2023/05/06 03:37:16;;;;;;;;;10.67;9.00;22.50;39.60;;;;;;111423;1248;55533;-62
2023/05/06 03:39:43;;;;;;;;;11.00;10.00;22.50;40.10;;;;;;111472;1236;53373;-61
2023/05/06 03:42:09;;;;;;;;;12.00;11.00;22.50;40.00;;;;;;111341;1243;48972;-60
2023/05/06 03:44:36;;;;;;;;;12.33;11.00;22.50;40.00;;;;;;111151;1242;49181;-60
2023/05/06 03:47:03;;;;;;;;;10.50;9.00;22.50;40.00;;;;;;111394;1240;44580;-61
2023/05/06 03:49:30;;;;;;;;;11.00;10.00;22.50;40.00;;;;;;111334;1237;54228;-61
2023/05/06 03:51:58;;;;;;;;;10.75;9.00;22.50;40.00;;;;;;111511;1241;54439;-60
2023/05/06 03:54:25;;;;;;;;;11.25;9.75;22.50;40.20;;;;;;111323;1241;49307;-60
2023/05/06 03:56:52;;;;;;;;;11.00;9.25;22.50;40.20;;;;;;111395;1237;49349;-60
2023/05/06 03:59:19;;;;;;;;;11.50;9.75;22.50;40.50;;;;;;111507;1243;44699;-60
2023/05/06 04:01:46;;;;;;;;;11.00;9.75;22.50;40.00;;;;;;111398;1237;55086;-62
2023/05/06 04:04:13;;;;;;;;;12.50;10.75;22.50;40.20;;;;;;111120;1243;53872;-61
2023/05/06 04:06:40;;;;;;;;;16.00;12.75;22.40;39.90;;;;;;111365;1241;49636;-61
2023/05/06 04:09:07;;;;;;;;;11.00;10.00;22.40;39.90;;;;;;111470;1240;50102;-60
2023/05/06 04:11:34;;;;;;;;;12.00;10.25;22.40;39.90;;;;;;111333;1236;44424;-58
2023/05/06 04:14:01;;;;;;;;;13.00;10.75;22.40;39.90;;;;;;111540;1237;54194;-61
2023/05/06 04:16:28;;;;;;;;;12.75;11.25;22.40;39.90;;;;;;111219;1238;54771;-61
2023/05/06 04:18:56;;;;;;;;;10.75;9.75;22.40;39.90;;;;;;111251;1237;49826;-60
2023/05/06 04:21:23;;;;;;;;;12.50;11.00;22.40;39.90;;;;;;111491;1238;49242;-60
2023/05/06 04:23:50;;;;;;;;;14.25;11.50;22.40;40.00;;;;;;111368;1238;45612;-59
2023/05/06 04:26:17;;;;;;;;;13.00;12.00;22.40;40.00;;;;;;111245;1238;54488;-59
2023/05/06 04:28:44;;;;;;;;;10.00;9.00;22.40;40.20;;;;;;111388;1237;53870;-59
2023/05/06 04:31:13;;;;;;;;;13.00;9.75;22.40;39.90;;;;;;111584;1238;50227;-60
2023/05/06 04:33:40;;;;;;;;;11.00;10.00;22.40;39.90;;;;;;111407;1241;48715;-60
2023/05/06 04:36:07;;;;;;;;;11.00;9.75;22.30;39.90;;;;;;111245;1237;45182;-60
2023/05/06 04:38:36;;;;;;;;;14.00;11.00;22.30;39.90;;;;;;111522;1237;54094;-59
2023/05/06 04:41:04;;;;;;;;;15.00;13.75;22.40;40.20;;;;;;111552;1247;54653;-59
2023/05/06 04:43:31;;;;;;;;;12.25;10.75;22.30;39.90;;;;;;111417;1241;49668;-60
2023/05/06 04:45:58;;;;;;;;;11.75;10.75;22.30;40.10;;;;;;111419;1240;49767;-60
2023/05/06 04:48:25;;;;;;;;;11.00;10.00;22.30;39.90;;;;;;111320;1240;45210;-59
2023/05/06 04:50:53;;;;;;;;;11.00;9.67;22.30;39.90;;;;;;111386;1237;54572;-59
2023/05/06 04:53:19;;;;;;;;;13.00;11.50;22.30;40.00;;;;;;111463;1241;53700;-61
2023/05/06 04:55:46;;;;;;;;;12.67;11.00;22.30;40.00;;;;;;111333;1241;49963;-59
2023/05/06 04:58:13;;;;;;;;;11.25;10.25;22.30;40.00;;;;;;111536;1237;49595;-59
2023/05/06 05:00:40;;;;;;;;;13.75;12.25;22.30;40.00;;;;;;111480;1243;44871;-59
2023/05/06 05:03:07;;;;;;;;;12.75;11.00;22.30;40.60;;;;;;111256;1238;55803;-60
2023/05/06 05:05:34;;;;;;;;;12.00;11.00;22.30;40.50;;;;;;111269;1241;54158;-60
2023/05/06 05:08:01;;;;;;;;;11.75;10.25;22.30;40.30;;;;;;111531;1241;49712;-60
2023/05/06 05:10:28;;;;;;;;;11.00;9.75;22.30;40.30;;;;;;111428;1247;49326;-60
2023/05/06 05:12:55;;;;;;;;;13.00;12.00;22.30;40.30;;;;;;111580;1238;45000;-61
2023/05/06 05:15:22;;;;;;;;;13.25;12.00;22.30;40.30;;;;;;111412;1241;54901;-58
2023/05/06 05:17:50;;;;;;;;;12.67;11.00;22.30;40.90;;;;;;111409;1241;54437;-61
2023/05/06 05:20:17;;;;;;;;;10.25;9.00;22.30;40.20;;;;;;111391;1241;49552;-60
2023/05/06 05:22:44;;;;;;;;;15.00;12.00;22.30;40.40;;;;;;111553;1239;48860;-59
2023/05/06 05:25:11;;;;;;;;;12.75;9.50;22.30;40.20;;;;;;111240;1237;44359;-59
2023/05/06 05:27:38;;;;;;;;;12.75;11.75;22.30;40.20;;;;;;111457;1237;55442;-60
2023/05/06 05:30:06;;;;;;;;;15.00;13.00;22.30;40.20;;;;;;111433;1238;54297;-61
2023/05/06 05:32:33;;;;;;;;;13.00;11.00;22.30;41.40;;;;;;111506;1242;49502;-61
2023/05/06 05:35:00;;;;;;;;;13.00;11.50;22.30;41.40;;;;;;111088;1243;49908;-61
2023/05/06 05:37:27;;;;;;;;;11.75;10.75;22.30;41.20;;;;;;111535;1241;44868;-60
2023/05/06 05:39:54;;;;;;;;;15.00;12.75;22.30;41.10;;;;;;111548;1241;54905;-61
2023/05/06 05:42:21;;;;;;;;;13.33;11.67;22.30;42.70;;;;;;111305;1240;54202;-60
2023/05/06 05:44:48;;;;;;;;;15.75;14.75;22.30;42.30;;;;;;111451;1238;49153;-61
2023/05/06 05:47:15;;;;;;;;;15.00;14.00;22.30;42.10;;;;;;111462;1242;49516;-61
2023/05/06 05:49:42;;;;;;;;;15.75;12.50;22.40;41.90;;;;;;111510;1237;45119;-61
2023/05/06 05:52:09;;;;;;;;;13.75;12.75;22.40;42.00;;;;;;111499;1241;54996;-61
2023/05/06 05:54:36;;;;;;;;;12.75;11.75;22.40;41.90;;;;;;111292;1237;54600;-63
2023/05/06 05:57:03;;;;;;;;;16.50;12.25;22.40;41.70;;;;;;111452;1241;49101;-63
2023/05/06 05:59:31;;;;;;;;;12.75;11.75;22.40;41.60;;;;;;111469;1238;50453;-63
2023/05/06 06:01:58;;;;;;;;;14.00;12.00;22.40;41.60;;;;;;111548;1238;45294;-64
2023/05/06 06:04:25;;;;;;;;;15.50;13.75;22.40;41.80;;;;;;111300;1241;54697;-63
2023/05/06 06:06:56;;;;;;;;;13.00;12.00;22.40;41.90;;;;;;111341;1239;54210;-69
2023/05/06 06:09:23;;;;;;;;;11.00;10.00;22.40;41.70;;;;;;111436;1238;49690;-69
2023/05/06 06:11:50;;;;;;;;;15.00;13.67;22.50;41.70;;;;;;111629;1238;49771;-66
2023/05/06 06:14:17;;;;;;;;;15.00;12.00;22.50;41.60;;;;;;111303;1237;45097;-62
2023/05/06 06:16:44;;;;;;;;;17.00;14.33;22.50;41.70;;;;;;111260;1241;54863;-63
2023/05/06 06:19:13;;;;;;;;;13.67;11.33;22.50;41.70;;;;;;111414;1238;53503;-63
2023/05/06 06:21:40;;;;;;;;;16.67;13.33;22.50;41.80;;;;;;111554;1241;49181;-63
2023/05/06 06:24:06;;;;;;;;;16.50;13.75;22.50;41.60;;;;;;111349;1244;49729;-65
2023/05/06 06:26:33;;;;;;;;;23.00;20.67;22.50;41.70;;;;;;111329;1241;44557;-67
2023/05/06 06:29:00;;;;;;;;;35.33;27.67;22.50;43.90;;;;;;111632;1237;54896;-67
2023/05/06 06:31:28;;;;;;;;;40.00;30.25;22.60;46.00;;;;;;111546;1239;53463;-69
2023/05/06 06:33:55;;;;;;;;;41.75;30.50;22.70;46.60;;;;;;111489;1237;49610;-68
2023/05/06 06:36:22;;;;;;;;;42.67;30.33;22.70;46.20;;;;;;111515;1237;49226;-67
2023/05/06 06:38:49;;;;;;;;;33.75;27.00;22.70;45.60;;;;;;111701;1241;45408;-67
2023/05/06 06:41:16;;;;;;;;;36.25;26.00;22.80;45.60;;;;;;111586;1241;54778;-67
2023/05/06 06:43:43;;;;;;;;;28.50;25.00;22.80;45.90;;;;;;111507;1241;53888;-67
2023/05/06 06:46:10;;;;;;;;;26.25;24.75;22.90;45.90;;;;;;111568;1238;49005;-67
2023/05/06 06:48:37;;;;;;;;;35.67;26.00;22.90;45.60;;;;;;111537;1237;49771;-66
2023/05/06 06:51:04;;;;;;;;;32.33;25.00;23.00;45.40;;;;;;111560;1241;45185;-67
2023/05/06 06:53:31;;;;;;;;;31.25;28.25;23.00;45.30;;;;;;111522;1237;54888;-65
2023/05/06 06:55:58;;;;;;;;;26.75;23.50;23.00;45.20;;;;;;111518;1241;54005;-66
2023/05/06 06:58:25;;;;;;;;;28.25;23.75;23.10;45.20;;;;;;111506;1238;49355;-65
2023/05/06 07:00:52;;;;;;;;;34.75;25.75;23.20;45.10;;;;;;111381;1245;49504;-66
2023/05/06 07:03:19;;;;;;;;;37.50;28.00;23.20;45.00;;;;;;111553;1238;44629;-66
2023/05/06 07:05:47;;;;;;;;;41.00;28.25;23.20;45.40;;;;;;111569;1237;54794;-67
2023/05/06 07:08:15;;;;;;;;;27.25;23.50;23.30;44.80;;;;;;111575;1238;54388;-66
2023/05/06 07:10:43;;;;;;;;;31.25;25.00;23.30;44.60;;;;;;111547;1237;50012;-67
2023/05/06 07:13:10;;;;;;;;;30.50;25.25;23.40;44.60;;;;;;111470;1241;50249;-66
2023/05/06 07:15:37;;;;;;;;;35.25;24.25;23.40;44.50;;;;;;111609;1241;44429;-67
2023/05/06 07:18:04;;;;;;;;;24.75;22.75;23.50;44.50;;;;;;111551;1237;54245;-66
2023/05/06 07:20:31;;;;;;;;;29.25;23.00;23.50;44.80;;;;;;111588;1237;53830;-67
2023/05/06 07:22:58;;;;;;;;;33.25;25.50;23.60;44.30;;;;;;111597;1238;50441;-66
2023/05/06 07:25:26;;;;;;;;;32.25;22.75;23.60;44.20;;;;;;111564;1237;48789;-67
2023/05/06 07:27:53;;;;;;;;;22.00;18.67;23.60;44.20;;;;;;111615;1241;45183;-67
2023/05/06 07:30:20;;;;;;;;;29.00;25.25;23.80;44.20;;;;;;111604;1241;54485;-66
2023/05/06 07:32:47;;;;;;;;;23.00;20.00;23.80;43.80;;;;;;111537;1242;53729;-67
2023/05/06 07:35:14;;;;;;;;;26.75;20.50;23.80;43.70;;;;;;111438;1243;50287;-67
2023/05/06 07:37:41;;;;;;;;;29.75;24.50;23.90;43.70;;;;;;111500;1236;49667;-65
2023/05/06 07:40:08;;;;;;;;;25.75;20.00;23.90;44.00;;;;;;111633;1241;44510;-67
2023/05/06 07:42:35;;;;;;;;;29.25;23.25;24.00;43.60;;;;;;111495;1241;55301;-67
2023/05/06 07:45:04;;;;;;;;;25.25;23.00;24.00;43.50;;;;;;111576;1237;54124;-66
2023/05/06 07:47:32;;;;;;;;;21.50;19.00;24.00;43.60;;;;;;111600;1237;50000;-66
2023/05/06 07:49:59;;;;;;;;;20.75;19.75;24.10;43.40;;;;;;111594;1241;50236;-66
2023/05/06 07:52:26;;;;;;;;;25.00;20.00;24.20;43.40;;;;;;111570;1241;44770;-66
2023/05/06 07:54:53;;;;;;;;;22.75;20.75;24.20;43.40;;;;;;111620;1238;55030;-66
2023/05/06 07:57:20;;;;;;;;;20.00;19.00;24.20;43.30;;;;;;111463;1238;54162;-66
2023/05/06 07:59:49;;;;;;;;;24.50;18.25;24.20;43.20;;;;;;111704;1241;49733;-66
2023/05/06 08:02:16;;;;;;;;;21.00;19.25;24.30;43.20;;;;;;111655;1241;49177;-69
2023/05/06 08:04:44;;;;;;;;;20.00;18.00;24.30;43.00;;;;;;111644;1238;45286;-66
2023/05/06 08:07:11;;;;;;;;;21.00;20.00;24.30;42.90;;;;;;111586;1241;54893;-67
2023/05/06 08:09:38;;;;;;;;;28.00;18.75;24.40;43.00;;;;;;111558;1240;53704;-67
2023/05/06 08:12:06;;;;;;;;;21.00;19.75;24.40;43.10;;;;;;111599;1239;50478;-66
2023/05/06 08:14:33;;;;;;;;;23.33;20.00;24.40;42.80;;;;;;111488;1238;49797;-67
2023/05/06 08:17:00;;;;;;;;;22.25;21.25;24.50;42.80;;;;;;111562;1238;44972;-66
2023/05/06 08:19:27;;;;;;;;;18.33;17.67;24.50;42.90;;;;;;111560;1237;55476;-66
2023/05/06 08:21:54;;;;;;;;;19.25;17.00;24.50;42.60;;;;;;111560;1241;53847;-66
2023/05/06 08:24:21;;;;;;;;;20.50;19.50;24.60;42.70;;;;;;111482;1237;49112;-66
2023/05/06 08:26:48;;;;;;;;;16.00;15.00;24.60;42.60;;;;;;111469;1243;49699;-66
2023/05/06 08:29:15;;;;;;;;;20.75;18.00;24.60;42.40;;;;;;111535;1241;44926;-67
2023/05/06 08:31:42;;;;;;;;;18.75;15.75;24.60;42.90;;;;;;111615;1237;55127;-67
2023/05/06 08:34:09;;;;;;;;;21.00;18.00;24.70;42.40;;;;;;111520;1241;54074;-67
2023/05/06 08:36:36;;;;;;;;;21.00;17.00;24.70;42.30;;;;;;111537;1241;49962;-67
2023/05/06 08:39:04;;;;;;;;;24.25;18.75;24.70;42.30;;;;;;111528;1240;48846;-67
2023/05/06 08:41:34;;;;;;;;;19.00;18.00;24.80;42.50;;;;;;111554;1241;44740;-67
2023/05/06 08:44:02;;;;;;;;;19.67;16.67;24.80;42.50;;;;;;111419;1241;55824;-67
2023/05/06 08:46:29;;;;;;;;;19.50;15.00;24.80;42.10;;;;;;111277;1238;53985;-67
2023/05/06 08:48:57;;;;;;;;;16.50;15.00;24.90;42.10;;;;;;111569;1241;49200;-66
2023/05/06 08:51:28;;;;;;;;;18.00;15.50;24.90;42.60;;;;;;111600;1238;48925;-65
2023/05/06 08:53:59;;;;;;;;;17.67;15.67;24.90;43.50;;;;;;111607;1238;45481;-66
2023/05/06 08:56:29;;;;;;;;;18.00;14.00;25.00;43.70;;;;;;112007;1237;54865;-66
2023/05/06 08:58:57;;;;;;;;;17.00;14.33;25.00;43.50;;;;;;110866;1242;689263;-66
2023/05/06 09:01:27;;;;;;;;;16.00;15.00;25.10;43.30;;;;;;111345;1240;49361;-67
2023/05/06 09:03:56;;;;;;;;;18.75;17.75;25.10;43.10;;;;;;111558;1238;48953;-64
2023/05/06 09:06:23;;;;;;;;;21.25;17.25;25.10;43.00;;;;;;111606;1241;44441;-63
2023/05/06 09:08:50;;;;;;;;;16.25;15.50;25.10;43.10;;;;;;111622;1241;55211;-62
2023/05/06 09:11:28;;;;;;;;;14.25;13.00;25.10;43.00;;;;;;111666;1238;54579;-63
2023/05/06 09:14:15;;;;;;;;;14.75;13.00;25.20;42.90;;;;;;111698;1241;49729;-62
2023/05/06 09:16:44;;;;;;;;;16.00;14.33;25.20;43.00;;;;;;111557;1242;49490;-63
2023/05/06 09:19:12;;;;;;;;;16.00;14.75;25.20;42.60;;;;;;111500;1238;44628;-62
2023/05/06 09:21:41;;;;;;;;;16.50;15.25;25.20;43.00;;;;;;111505;1242;55048;-62
2023/05/06 09:24:10;;;;;;;;;15.75;14.75;25.30;42.50;;;;;;111603;1238;53182;-65
2023/05/06 09:26:40;;;;;;;;;19.50;14.75;25.20;42.30;;;;;;111501;1243;49191;-62
2023/05/06 09:29:07;;;;;;;;;16.00;13.00;25.30;42.30;;;;;;111559;1238;49028;-63
2023/05/06 09:31:42;;;;;;;;;13.50;12.00;25.30;42.10;;;;;;111577;1245;45414;-64
2023/05/06 09:34:10;;;;;;;;;14.33;13.00;25.30;41.80;;;;;;111579;1240;54433;-64
2023/05/06 09:36:38;;;;;;;;;13.75;13.00;25.30;41.70;;;;;;111471;1237;53278;-65
2023/05/06 09:39:05;;;;;;;;;14.50;13.50;25.30;41.60;;;;;;111550;1238;49565;-65
2023/05/06 09:41:32;;;;;;;;;15.25;13.50;25.30;41.40;;;;;;111657;1241;49611;-63
2023/05/06 09:44:00;;;;;;;;;14.33;13.00;25.30;41.30;;;;;;111561;1242;45191;-64
2023/05/06 09:46:27;;;;;;;;;38.25;27.00;25.30;41.30;;;;;;111352;1245;54995;-68
2023/05/06 09:48:56;;;;;;;;;41.00;28.25;25.30;41.50;;;;;;111545;1241;53591;-64
2023/05/06 09:51:23;;;;;;;;;29.00;23.00;25.30;41.50;;;;;;111583;1238;49154;-64
2023/05/06 09:53:50;;;;;;;;;27.33;21.33;25.30;41.40;;;;;;111372;1237;49309;-64
2023/05/06 09:56:18;;;;;;;;;24.75;19.75;25.30;41.40;;;;;;111613;1238;45168;-64
2023/05/06 09:58:46;;;;;;;;;18.50;16.00;25.30;41.40;;;;;;111456;1244;54405;-64
2023/05/06 10:01:14;;;;;;;;;20.00;19.00;25.40;41.20;;;;;;111559;1239;53536;-64
2023/05/06 10:03:42;;;;;;;;;23.00;18.75;25.30;41.10;;;;;;111306;1239;49141;-64
2023/05/06 10:06:11;;;;;;;;;19.00;15.67;25.40;41.20;;;;;;111475;1238;49171;-64
2023/05/06 10:08:40;;;;;;;;;15.25;14.00;25.30;41.30;;;;;;111622;1241;45343;-65
2023/05/06 10:11:08;;;;;;;;;15.00;13.25;25.30;41.00;;;;;;111430;1241;55021;-63
2023/05/06 10:13:35;;;;;;;;;18.00;15.25;25.30;40.80;;;;;;111224;1240;54214;-64
2023/05/06 10:16:04;;;;;;;;;15.50;13.00;25.40;40.70;;;;;;111172;1241;50311;-64
2023/05/06 10:18:33;;;;;;;;;14.67;13.67;25.30;40.60;;;;;;111384;1241;49441;-65
2023/05/06 10:21:03;;;;;;;;;15.00;14.00;25.40;40.70;;;;;;111379;1241;44606;-64
2023/05/06 10:23:43;;;;;;;;;17.50;14.00;25.40;40.60;;;;;;111446;1241;54350;-64
2023/05/06 10:26:11;;;;;;;;;20.00;16.00;25.30;40.50;;;;;;111390;1241;54156;-66
2023/05/06 10:28:40;;;;;;;;;16.75;12.75;25.40;40.50;;;;;;111420;1242;50259;-65
2023/05/06 10:31:11;;;;;;;;;13.50;12.00;25.40;40.30;;;;;;111526;1241;50343;-65
2023/05/06 10:33:45;;;;;;;;;16.00;14.00;25.40;40.20;;;;;;111491;1237;45286;-64
2023/05/06 10:36:26;;;;;;;;;14.25;13.25;25.40;40.50;;;;;;111333;1238;54808;-64
2023/05/06 10:38:55;;;;;;;;;15.25;13.00;25.40;40.50;;;;;;111513;1242;54123;-65
2023/05/06 10:41:24;;;;;;;;;14.67;13.00;25.40;40.40;;;;;;111568;1241;49907;-64
2023/05/06 10:43:55;;;;;;;;;13.25;12.25;25.40;40.20;;;;;;111564;1239;49584;-65
2023/05/06 10:46:24;;;;;;;;;13.75;12.75;25.40;40.30;;;;;;111295;1237;44551;-64
2023/05/06 10:49:04;;;;;;;;;15.00;13.75;25.40;40.50;;;;;;111613;1239;54834;-64
2023/05/06 10:51:32;;;;;;;;;15.00;12.00;25.40;40.20;;;;;;111382;1242;53889;-64
2023/05/06 10:54:17;;;;;;;;;13.00;12.00;25.40;40.20;;;;;;111592;1238;49647;-64
2023/05/06 10:56:47;;;;;;;;;12.50;11.75;25.40;40.10;;;;;;111504;1241;49681;-64
2023/05/06 10:59:19;;;;;;;;;14.67;12.00;25.40;40.40;;;;;;111422;1242;44682;-65
2023/05/06 11:02:05;;;;;;;;;14.00;13.00;25.40;40.20;;;;;;111438;1239;54851;-64
2023/05/06 11:04:33;;;;;;;;;12.00;11.00;25.40;40.10;;;;;;111554;1241;53543;-64
2023/05/06 11:07:10;;;;;;;;;12.00;11.00;25.40;40.10;;;;;;111556;1239;49986;-64
2023/05/06 11:09:57;;;;;;;;;16.00;14.33;25.40;40.00;;;;;;111305;1241;49784;-64
2023/05/06 11:12:50;;;;;;;;;13.00;12.00;25.40;40.00;;;;;;111407;1240;44441;-64
2023/05/06 11:15:27;;;;;;;;;15.00;13.00;25.40;40.00;;;;;;111518;1245;54419;-64
2023/05/06 11:17:55;;;;;;;;;14.67;11.33;25.40;40.10;;;;;;111580;1239;54571;-65
2023/05/06 11:20:26;;;;;;;;;12.00;10.75;25.40;40.00;;;;;;111559;1241;50215;-65
2023/05/06 11:22:53;;;;;;;;;15.50;13.00;25.40;40.10;;;;;;111571;1241;49448;-64
2023/05/06 11:25:40;;;;;;;;;14.00;12.75;25.40;40.20;;;;;;111477;1238;45202;-65
2023/05/06 11:28:09;;;;;;;;;15.00;13.00;25.40;40.30;;;;;;111538;1237;55222;-64
2023/05/06 11:30:41;;;;;;;;;13.00;12.00;25.40;40.30;;;;;;111529;1241;53555;-65
2023/05/06 11:33:16;;;;;;;;;13.50;11.00;25.40;40.30;;;;;;111539;1239;49861;-64
2023/05/06 11:35:43;;;;;;;;;15.00;13.75;25.40;40.10;;;;;;111379;1240;49181;-63
2023/05/06 11:38:11;;;;;;;;;13.25;12.00;25.40;40.00;;;;;;111524;1237;45182;-63
2023/05/06 11:40:40;;;;;;;;;12.50;11.25;25.50;39.90;;;;;;111286;1244;55006;-64
2023/05/06 11:43:11;;;;;;;;;14.33;13.33;25.50;39.80;;;;;;111489;1241;54011;-64
2023/05/06 11:45:47;;;;;;;;;12.25;11.25;25.50;39.80;;;;;;111318;1247;49199;-63
2023/05/06 11:48:15;;;;;;;;;13.00;11.75;25.40;39.70;;;;;;111293;1238;49397;-65
2023/05/06 11:50:47;;;;;;;;;17.00;14.75;25.40;39.70;;;;;;111536;1237;45145;-65
2023/05/06 11:53:19;;;;;;;;;13.00;12.00;25.50;39.90;;;;;;111514;1241;54451;-65
2023/05/06 11:55:48;;;;;;;;;15.00;14.00;25.40;40.10;;;;;;111153;1240;54528;-65
2023/05/06 11:58:16;;;;;;;;;15.00;12.00;25.40;40.00;;;;;;111541;1236;49984;-64
2023/05/06 12:00:53;;;;;;;;;17.75;16.25;25.50;40.00;;;;;;111448;1240;50059;-65
2023/05/06 12:03:22;;;;;;;;;15.67;14.67;25.40;40.20;;;;;;111615;1241;44718;-65
2023/05/06 12:05:50;;;;;;;;;14.00;13.00;25.50;40.10;;;;;;111492;1241;55091;-64
2023/05/06 12:08:22;;;;;;;;;17.00;12.00;25.40;40.10;;;;;;111549;1238;53641;-64
2023/05/06 12:11:01;;;;;;;;;16.00;14.00;25.40;40.30;;;;;;111407;1237;49367;-65
2023/05/06 12:13:28;;;;;;;;;13.00;12.00;25.40;40.20;;;;;;111441;1241;49408;-67
2023/05/06 12:15:58;;;;;;;;;15.00;13.00;25.40;40.20;;;;;;111563;1237;44920;-66
2023/05/06 12:18:26;;;;;;;;;13.75;12.75;25.40;40.50;;;;;;111530;1238;55370;-64
2023/05/06 12:20:54;;;;;;;;;13.25;12.25;25.40;40.40;;;;;;111282;1244;53489;-63
2023/05/06 12:23:21;;;;;;;;;14.00;13.00;25.40;40.60;;;;;;111516;1238;49435;-63
2023/05/06 12:26:02;;;;;;;;;12.75;12.00;25.40;40.50;;;;;;111328;1237;50084;-64